X  CloseMetar Aviation Weather Data     KDLS Columbia Gorge Regional / The Dalles Municipal

Temperature

82°F Temperature

34°F Dewpoint

17% Humidity



Wind

18 MPH

29 KM/H

 8 M/S

16 KTS



300°
West North
West
Current Conditions

Clear Clear
Pressure 1016.92 (hPa) - 30.03 (in)
Visibility 10 (mi) - 16.1 (km)
Airport
Airport-code KDLS

Location Columbia Gorge Regional / The Dalles Municipal 2 (mi)

Metar:
KDLS 022353Z AUTO 30016G26KT 10SM CLR 28/01 A3003 RMK AO2 PK WND 28026/2351 SLP168 T02780006 10278 20206 56015

Time: 06-02-2020 4:53